createdAt,value
2022-12-11T00:01:40.783Z,98345.22
2022-12-11T00:07:43.348Z,98339.59
2022-12-11T00:13:45.716Z,98310.47
2022-12-11T00:19:48.243Z,98288.19
2022-12-11T00:25:53.700Z,98272.13
2022-12-11T00:31:56.212Z,98279.28
2022-12-11T00:37:58.640Z,98149.91
2022-12-11T00:44:01.100Z,98206.28
2022-12-11T00:50:03.593Z,98262.56
2022-12-11T00:56:21.089Z,98293.75
2022-12-11T01:02:25.646Z,98250.16
2022-12-11T01:08:28.099Z,98275.44
2022-12-11T01:14:32.519Z,98250.09
2022-12-11T01:20:41.919Z,98223.81
2022-12-11T01:26:46.461Z,98218.75
2022-12-11T01:32:48.919Z,98123.69
2022-12-11T01:38:56.400Z,98184.09
2022-12-11T01:45:27.463Z,98202.06
2022-12-11T01:51:34.466Z,98194.56
2022-12-11T01:57:43.967Z,98198.81
2022-12-11T02:03:46.400Z,98154.81
2022-12-11T02:09:49.839Z,98139.16
2022-12-11T02:16:16.567Z,98142.75
2022-12-11T02:22:45.978Z,98134.63
2022-12-11T02:28:57.232Z,98076.13
2022-12-11T02:35:13.193Z,98110.03
2022-12-11T02:41:16.403Z,98014.41
2022-12-11T02:47:28.659Z,98079.34
2022-12-11T02:53:37.394Z,98058.09
2022-12-11T02:59:42.882Z,98104.41
2022-12-11T03:05:48.340Z,98097.81
2022-12-11T03:11:50.813Z,98099.28
2022-12-11T03:18:16.344Z,98080.34
2022-12-11T03:24:51.408Z,98084.56
2022-12-11T03:30:58.327Z,98076.47
2022-12-11T03:37:06.323Z,98057.66
2022-12-11T03:43:13.518Z,98040.34
2022-12-11T03:49:23.729Z,98029.75
2022-12-11T03:55:28.359Z,98009.03
2022-12-11T04:01:38.322Z,98007.50
2022-12-11T04:07:43.696Z,97980.44
2022-12-11T04:13:46.799Z,97963.72
2022-12-11T04:20:07.268Z,97961.72
2022-12-11T04:26:17.855Z,97883.03
2022-12-11T04:32:28.791Z,97825.69
2022-12-11T04:38:37.578Z,97809.56
2022-12-11T04:44:48.310Z,97854.44
2022-12-11T04:50:50.749Z,97925.81
2022-12-11T04:56:53.219Z,97902.06
2022-12-11T05:02:58.667Z,97888.38
2022-12-11T05:09:01.133Z,97888.66
2022-12-11T05:15:06.588Z,97816.78
2022-12-11T05:21:14.064Z,97873.41
2022-12-11T05:27:15.991Z,97885.09
2022-12-11T05:33:21.006Z,97804.50
2022-12-11T05:39:26.419Z,97864.09
2022-12-11T05:45:29.004Z,97848.56
2022-12-11T05:51:38.284Z,97828.13
2022-12-11T05:57:42.617Z,97830.97
2022-12-11T06:03:53.286Z,97812.44
2022-12-11T06:09:58.949Z,97805.53
2022-12-11T06:16:08.498Z,97828.28
2022-12-11T06:22:10.924Z,97818.06
2022-12-11T06:28:18.014Z,97770.34
2022-12-11T06:34:22.790Z,97804.97
2022-12-11T06:40:28.395Z,97783.25
2022-12-11T06:46:31.856Z,97802.34
2022-12-11T06:52:51.501Z,97800.84
2022-12-11T06:58:53.859Z,97768.81
2022-12-11T07:04:59.895Z,97775.69
2022-12-11T07:11:18.202Z,97774.56
2022-12-11T07:17:20.252Z,97760.66
2022-12-11T07:23:29.744Z,97669.66
2022-12-11T07:30:01.497Z,97742.06
2022-12-11T07:36:05.854Z,97731.75
2022-12-11T07:42:08.292Z,97730.03
2022-12-11T07:48:10.780Z,97726.34
2022-12-11T07:54:17.211Z,97717.09
2022-12-11T08:00:19.653Z,97700.72
2022-12-11T08:06:29.566Z,97713.84
2022-12-11T08:12:32.596Z,97699.69
2022-12-11T08:18:39.267Z,97698.59
2022-12-11T08:24:41.573Z,97706.66
2022-12-11T08:30:54.063Z,97699.47
2022-12-11T08:37:04.494Z,97680.75
2022-12-11T08:43:12.986Z,97681.16
2022-12-11T08:49:20.537Z,97674.53
2022-12-11T08:55:30.004Z,97653.47
2022-12-11T09:01:37.482Z,97640.91
2022-12-11T09:07:39.968Z,97640.84
2022-12-11T09:13:49.288Z,97642.75
2022-12-11T09:19:51.916Z,97632.25
2022-12-11T09:25:58.349Z,97634.31
2022-12-11T09:32:00.842Z,97537.09
2022-12-11T09:38:09.368Z,97593.94
2022-12-11T09:44:39.628Z,97602.16
2022-12-11T09:50:49.532Z,97562.50
2022-12-11T09:57:20.586Z,97614.34
2022-12-11T10:03:50.505Z,97592.44
2022-12-11T10:09:58.990Z,97599.91
2022-12-11T10:16:10.589Z,97551.78
2022-12-11T10:22:28.012Z,97532.44
2022-12-11T10:28:30.474Z,97566.44
2022-12-11T10:34:49.775Z,97567.38
2022-12-11T10:41:00.567Z,97573.25
2022-12-11T10:47:08.043Z,97563.44
2022-12-11T10:53:21.544Z,97573.78
2022-12-11T10:59:31.039Z,97569.88
2022-12-11T11:05:37.527Z,97563.97
2022-12-11T11:11:40.034Z,97575.56
2022-12-11T11:17:59.555Z,97587.63
2022-12-11T11:24:04.163Z,97499.03
2022-12-11T11:30:41.569Z,97603.72
2022-12-11T11:36:44.008Z,97613.75
2022-12-11T11:43:00.934Z,97623.97
2022-12-11T11:49:25.949Z,97635.09
2022-12-11T11:55:57.650Z,97642.72
2022-12-11T12:02:00.125Z,97620.22
2022-12-11T12:08:16.950Z,97620.22
2022-12-11T12:21:01.918Z,97653.41
2022-12-11T12:27:51.446Z,97616.25
2022-12-11T12:34:05.644Z,97684.13
2022-12-11T12:40:32.423Z,97653.53
2022-12-11T12:46:46.353Z,97689.66
2022-12-11T12:53:00.700Z,97695.66
2022-12-11T12:59:32.021Z,97720.88
2022-12-11T13:05:37.883Z,97737.47
2022-12-11T13:11:40.903Z,97756.78
2022-12-11T13:17:43.364Z,97776.38
2022-12-11T13:23:49.860Z,97803.00
2022-12-11T13:30:20.414Z,97798.44
2022-12-11T13:36:36.962Z,97858.78
2022-12-11T13:43:08.511Z,97707.88
2022-12-11T13:49:52.630Z,97847.75
2022-12-11T13:56:18.713Z,97718.38
2022-12-11T14:02:34.257Z,97835.59
2022-12-11T14:08:57.132Z,97878.81
2022-12-11T14:15:05.306Z,97876.47
2022-12-11T14:21:27.437Z,97821.53
2022-12-11T14:27:34.373Z,97920.97
2022-12-11T14:33:44.839Z,97942.44
2022-12-11T14:39:54.615Z,97967.13
2022-12-11T14:46:19.557Z,97974.03
2022-12-11T14:52:42.469Z,97941.63
2022-12-11T14:59:09.004Z,97997.28
2022-12-11T15:05:18.358Z,98011.56
2022-12-11T15:11:37.037Z,97934.50
2022-12-11T15:17:48.356Z,98001.94
2022-12-11T15:24:00.050Z,98004.41
2022-12-11T15:30:16.810Z,98009.47
2022-12-11T15:36:41.077Z,97998.63
2022-12-11T15:42:46.627Z,97923.09
2022-12-11T15:48:52.058Z,98050.88
2022-12-11T15:54:54.534Z,97998.53
2022-12-11T16:01:04.519Z,98072.00
2022-12-11T16:07:25.544Z,98105.25
2022-12-11T16:13:33.047Z,98091.53
2022-12-11T16:19:43.851Z,98085.59
2022-12-11T16:25:56.009Z,98127.22
2022-12-11T16:32:12.586Z,98116.94
2022-12-11T16:38:23.123Z,98130.66
2022-12-11T16:44:50.223Z,98146.31
2022-12-11T16:51:02.197Z,98149.50
2022-12-11T16:57:04.585Z,98150.28
2022-12-11T17:03:14.079Z,98162.19
2022-12-11T17:09:16.504Z,98153.94
2022-12-11T17:15:28.071Z,98202.84
2022-12-11T17:21:48.526Z,98196.34
2022-12-11T17:28:06.181Z,98191.69
2022-12-11T17:34:16.113Z,98212.72
2022-12-11T17:40:26.274Z,98174.84
2022-12-11T17:46:48.199Z,98015.13
2022-12-11T17:52:54.983Z,98125.47
2022-12-11T17:59:00.560Z,98138.66
2022-12-11T18:05:06.032Z,98194.22
2022-12-11T18:11:40.014Z,98205.56
2022-12-11T18:17:45.048Z,98221.88
2022-12-11T18:23:48.509Z,98236.22
2022-12-11T18:29:52.024Z,98242.72
2022-12-11T18:36:01.468Z,98192.25
2022-12-11T18:48:28.792Z,98259.06
2022-12-11T18:54:34.043Z,98286.59
2022-12-11T19:00:40.829Z,98250.59
2022-12-11T19:06:43.993Z,98251.19
2022-12-11T19:12:46.447Z,98268.16
2022-12-11T19:19:18.699Z,98191.53
2022-12-11T19:25:23.976Z,98244.81
2022-12-11T19:31:31.163Z,98263.47
2022-12-11T19:37:47.037Z,98242.41
2022-12-11T19:44:41.128Z,98265.09
2022-12-11T19:57:14.328Z,98272.41
2022-12-11T20:10:46.897Z,98014.63
2022-12-11T20:24:13.972Z,98168.00
2022-12-11T20:30:31.448Z,98320.97
2022-12-11T20:36:56.793Z,98303.69
2022-12-11T20:42:59.257Z,98247.94
2022-12-11T20:49:06.201Z,98326.47
2022-12-11T20:55:11.518Z,98338.59
2022-12-11T21:01:21.199Z,98350.66
2022-12-11T21:07:25.659Z,98260.53
2022-12-11T21:13:39.771Z,98353.53
2022-12-11T21:19:43.617Z,98392.59
2022-12-11T21:25:45.625Z,98398.03
2022-12-11T21:31:49.428Z,98351.31
2022-12-11T21:38:01.322Z,98399.03
2022-12-11T21:50:46.677Z,98412.19
2022-12-11T21:56:50.626Z,98432.09
2022-12-11T22:02:59.982Z,98447.56
2022-12-11T22:09:07.788Z,98436.47
2022-12-11T22:15:14.679Z,98467.31
2022-12-11T22:21:17.992Z,98451.75
2022-12-11T22:27:23.617Z,98399.94
2022-12-11T22:33:26.949Z,98438.88
2022-12-11T22:39:31.282Z,98430.50
2022-12-11T22:45:33.911Z,98404.41
2022-12-11T22:51:41.129Z,98430.13
2022-12-11T22:57:45.788Z,98435.59
2022-12-11T23:03:49.332Z,98422.66
2022-12-11T23:09:52.723Z,98368.63
2022-12-11T23:15:55.193Z,98400.78
2022-12-11T23:22:01.321Z,98399.63
2022-12-11T23:28:15.883Z,98439.47
2022-12-11T23:34:18.623Z,98440.66
2022-12-11T23:40:21.105Z,98450.19
2022-12-11T23:46:25.720Z,98402.53
2022-12-11T23:52:28.049Z,98486.78
2022-12-11T23:58:30.468Z,98461.91
